createdAt,value
2018-05-26T00:01:13.176Z,9.23
2018-05-26T00:03:40.861Z,10.33
2018-05-26T00:06:08.626Z,10.77
2018-05-26T00:08:36.399Z,13.03
2018-05-26T00:11:04.112Z,10.80
2018-05-26T00:13:31.819Z,11.47
2018-05-26T00:15:59.612Z,10.83
2018-05-26T00:18:27.582Z,11.90
2018-05-26T00:20:56.373Z,11.97
2018-05-26T00:23:25.919Z,13.57
2018-05-26T00:25:55.323Z,12.20
2018-05-26T00:28:23.977Z,11.60
2018-05-26T00:30:52.643Z,11.93
2018-05-26T00:33:23.724Z,10.47
2018-05-26T00:35:52.445Z,12.27
2018-05-26T00:38:22.639Z,9.67
2018-05-26T00:40:52.135Z,11.23
2018-05-26T00:43:23.062Z,10.97
2018-05-26T00:45:52.578Z,10.40
2018-05-26T00:48:21.294Z,10.93
2018-05-26T00:50:49.024Z,10.27
2018-05-26T00:53:16.736Z,9.23
2018-05-26T00:55:44.390Z,8.70
2018-05-26T00:58:12.138Z,8.93
2018-05-26T01:00:40.627Z,10.03
2018-05-26T01:03:08.307Z,10.20
2018-05-26T01:05:36.770Z,12.00
2018-05-26T01:08:04.482Z,11.27
2018-05-26T01:10:32.210Z,11.57
2018-05-26T01:12:59.935Z,12.13
2018-05-26T01:15:27.571Z,13.60
2018-05-26T01:17:55.248Z,12.37
2018-05-26T01:20:22.975Z,13.43
2018-05-26T01:22:50.684Z,11.93
2018-05-26T01:25:18.348Z,12.33
2018-05-26T01:27:46.125Z,11.10
2018-05-26T01:30:13.809Z,12.43
2018-05-26T01:32:41.653Z,11.43
2018-05-26T01:35:09.307Z,14.93
2018-05-26T01:37:37.215Z,10.60
2018-05-26T01:40:04.967Z,11.73
2018-05-26T01:42:32.751Z,14.33
2018-05-26T01:45:00.477Z,11.63
2018-05-26T01:47:28.314Z,11.50
2018-05-26T01:49:55.996Z,11.83
2018-05-26T01:52:23.671Z,13.40
2018-05-26T01:54:51.402Z,15.83
2018-05-26T01:57:19.256Z,14.20
2018-05-26T01:59:46.984Z,16.07
2018-05-26T02:02:14.645Z,15.37
2018-05-26T02:04:44.092Z,15.90
2018-05-26T02:07:13.401Z,17.80
2018-05-26T02:09:41.057Z,16.00
2018-05-26T02:12:09.191Z,18.30
2018-05-26T02:14:38.006Z,16.17
2018-05-26T02:17:05.895Z,15.33
2018-05-26T02:19:33.608Z,16.17
2018-05-26T02:22:01.331Z,14.33
2018-05-26T02:24:31.772Z,15.50
2018-05-26T02:26:59.841Z,20.07
2018-05-26T02:29:28.566Z,15.70
2018-05-26T02:31:57.369Z,16.87
2018-05-26T02:34:25.287Z,18.53
2018-05-26T02:36:53.566Z,18.57
2018-05-26T02:39:22.059Z,18.33
2018-05-26T02:41:49.810Z,18.07
2018-05-26T02:44:17.559Z,19.37
2018-05-26T02:46:45.276Z,20.47
2018-05-26T02:49:12.941Z,19.70
2018-05-26T02:51:40.669Z,18.97
2018-05-26T02:54:08.355Z,18.10
2018-05-26T02:56:36.105Z,18.30
2018-05-26T02:59:03.821Z,18.03
2018-05-26T03:01:31.661Z,17.00
2018-05-26T03:03:58.836Z,14.63
2018-05-26T03:06:32.090Z,14.33
2018-05-26T03:09:05.479Z,12.67
2018-05-26T03:11:38.956Z,12.97
2018-05-26T03:14:12.167Z,13.60
2018-05-26T03:16:40.891Z,13.87
2018-05-26T03:19:08.591Z,13.43
2018-05-26T03:21:36.302Z,13.73
2018-05-26T03:24:04.116Z,13.50
2018-05-26T03:26:31.860Z,14.00
2018-05-26T03:28:59.515Z,14.53
2018-05-26T03:31:27.235Z,13.73
2018-05-26T03:33:54.925Z,15.03
2018-05-26T03:36:23.476Z,14.77
2018-05-26T03:38:51.179Z,14.93
2018-05-26T03:41:19.687Z,15.37
2018-05-26T03:43:47.388Z,15.17
2018-05-26T03:46:15.146Z,17.23
2018-05-26T03:48:43.103Z,14.70
2018-05-26T03:51:10.882Z,13.53
2018-05-26T03:53:38.571Z,13.10
2018-05-26T03:56:18.185Z,12.30
2018-05-26T03:58:57.578Z,12.53
2018-05-26T04:01:25.272Z,13.17
2018-05-26T04:03:53.781Z,13.30
2018-05-26T04:06:21.517Z,13.17
2018-05-26T04:08:49.216Z,15.37
2018-05-26T04:11:16.949Z,14.10
2018-05-26T04:13:44.667Z,15.00
2018-05-26T04:16:12.384Z,13.17
2018-05-26T04:18:40.202Z,12.17
2018-05-26T04:21:07.886Z,12.57
2018-05-26T04:23:36.447Z,13.23
2018-05-26T04:26:04.181Z,13.63
2018-05-26T04:28:31.909Z,13.17
2018-05-26T04:31:00.383Z,12.77
2018-05-26T04:33:28.079Z,13.70
2018-05-26T04:35:55.767Z,14.23
2018-05-26T04:38:23.539Z,15.97
2018-05-26T04:40:51.278Z,15.80
2018-05-26T04:43:18.955Z,16.27
2018-05-26T04:45:46.877Z,15.83
2018-05-26T04:48:15.271Z,14.80
2018-05-26T04:50:42.946Z,16.07
2018-05-26T04:53:10.619Z,18.70
2018-05-26T04:55:38.266Z,19.77
2018-05-26T04:58:06.004Z,19.37
2018-05-26T05:00:33.862Z,18.03
2018-05-26T05:03:02.328Z,18.17
2018-05-26T05:05:29.982Z,20.23
2018-05-26T05:07:57.691Z,22.43
2018-05-26T05:10:25.404Z,19.13
2018-05-26T05:12:53.120Z,20.50
2018-05-26T05:15:20.803Z,20.70
2018-05-26T05:17:48.580Z,20.27
2018-05-26T05:20:16.323Z,20.67
2018-05-26T05:22:44.206Z,22.47
2018-05-26T05:25:12.048Z,22.47
2018-05-26T05:27:39.744Z,21.70
2018-05-26T05:30:07.422Z,23.33
2018-05-26T05:32:35.165Z,23.70
2018-05-26T05:35:02.923Z,22.37
2018-05-26T05:37:30.645Z,20.83
2018-05-26T05:39:58.368Z,21.50
2018-05-26T05:42:26.084Z,22.60
2018-05-26T05:44:53.838Z,22.47
2018-05-26T05:47:21.478Z,20.70
2018-05-26T05:49:49.328Z,21.23
2018-05-26T05:52:17.086Z,20.77
2018-05-26T05:54:44.875Z,18.13
2018-05-26T05:57:12.562Z,18.93
2018-05-26T05:59:40.218Z,22.43
2018-05-26T06:02:09.065Z,21.73
2018-05-26T06:04:37.695Z,19.57
2018-05-26T06:07:05.882Z,20.27
2018-05-26T06:09:33.660Z,20.70
2018-05-26T06:12:01.438Z,19.57
2018-05-26T06:14:29.173Z,18.87
2018-05-26T06:16:56.928Z,19.70
2018-05-26T06:19:24.701Z,20.60
2018-05-26T06:21:52.459Z,22.27
2018-05-26T06:24:20.158Z,19.50
2018-05-26T06:26:47.836Z,18.60
2018-05-26T06:29:15.547Z,21.07
2018-05-26T06:31:43.240Z,18.93
2018-05-26T06:34:10.945Z,19.93
2018-05-26T06:36:38.945Z,18.80
2018-05-26T06:39:06.732Z,19.43
2018-05-26T06:41:34.483Z,19.37
2018-05-26T06:44:02.179Z,19.10
2018-05-26T06:46:29.898Z,18.50
2018-05-26T06:48:57.589Z,19.20
2018-05-26T06:51:25.370Z,17.07
2018-05-26T06:53:53.066Z,19.57
2018-05-26T06:56:21.273Z,16.67
2018-05-26T06:58:49.053Z,19.23
2018-05-26T07:01:17.053Z,17.03
2018-05-26T07:03:44.792Z,20.10
2018-05-26T07:06:13.568Z,17.03
2018-05-26T07:08:41.373Z,16.63
2018-05-26T07:11:09.259Z,18.13
2018-05-26T07:13:37.839Z,16.33
2018-05-26T07:16:06.929Z,15.23
2018-05-26T07:18:34.714Z,18.93
2018-05-26T07:21:02.402Z,16.40
2018-05-26T07:23:30.114Z,17.63
2018-05-26T07:25:57.800Z,17.87
2018-05-26T07:28:26.262Z,18.90
2018-05-26T07:30:54.082Z,17.43
2018-05-26T07:33:21.893Z,16.53
2018-05-26T07:35:49.661Z,18.83
2018-05-26T07:38:17.426Z,16.70
2018-05-26T07:40:45.186Z,18.40
2018-05-26T07:43:13.023Z,18.47
2018-05-26T07:45:40.736Z,17.27
2018-05-26T07:48:08.389Z,18.33
2018-05-26T07:50:36.858Z,18.90
2018-05-26T07:53:04.695Z,16.25
2018-05-26T07:55:32.407Z,16.02
2018-05-26T07:58:00.139Z,15.68
2018-05-26T08:00:27.907Z,17.20
2018-05-26T08:02:55.604Z,15.15
2018-05-26T08:05:23.345Z,15.48
2018-05-26T08:07:51.819Z,13.02
2018-05-26T08:10:20.210Z,13.82
2018-05-26T08:12:47.886Z,17.17
2018-05-26T08:15:15.624Z,13.02
2018-05-26T08:17:44.105Z,13.48
2018-05-26T08:20:11.779Z,13.75
2018-05-26T08:22:39.484Z,14.82
2018-05-26T08:25:07.287Z,13.23
2018-05-26T08:27:35.039Z,13.52
2018-05-26T08:30:02.809Z,14.98
2018-05-26T08:32:30.569Z,13.52
2018-05-26T08:34:58.244Z,14.90
2018-05-26T08:37:26.213Z,12.95
2018-05-26T08:39:53.978Z,12.65
2018-05-26T08:42:21.778Z,11.30
2018-05-26T08:44:49.603Z,11.57
2018-05-26T08:47:17.435Z,11.80
2018-05-26T08:49:45.213Z,14.85
2018-05-26T08:52:12.988Z,11.32
2018-05-26T08:54:40.782Z,11.88
2018-05-26T08:57:08.751Z,9.80
2018-05-26T08:59:36.688Z,11.40
2018-05-26T09:02:04.849Z,11.43
2018-05-26T09:04:32.619Z,11.93
2018-05-26T09:07:00.473Z,11.15
2018-05-26T09:09:29.656Z,13.02
2018-05-26T09:11:57.351Z,10.77
2018-05-26T09:14:26.126Z,9.68
2018-05-26T09:16:53.964Z,9.93
2018-05-26T09:19:22.577Z,11.38
2018-05-26T09:21:50.283Z,10.55
2018-05-26T09:24:18.096Z,12.50
2018-05-26T09:26:45.831Z,12.18
2018-05-26T09:29:14.257Z,13.05
2018-05-26T09:31:42.073Z,12.02
2018-05-26T09:34:10.523Z,11.02
2018-05-26T09:36:38.300Z,12.55
2018-05-26T09:39:06.045Z,13.35
2018-05-26T09:41:33.991Z,12.68
2018-05-26T09:44:01.712Z,11.00
2018-05-26T09:46:29.417Z,13.07
2018-05-26T09:48:58.523Z,12.35
2018-05-26T09:51:26.295Z,14.35
2018-05-26T09:56:29.628Z,11.10
2018-05-26T09:58:57.871Z,13.38
2018-05-26T10:01:26.420Z,10.20
2018-05-26T10:03:54.160Z,11.70
2018-05-26T10:06:23.079Z,10.00
2018-05-26T10:08:55.607Z,8.93
2018-05-26T10:11:24.156Z,9.40
2018-05-26T10:13:52.046Z,8.05
2018-05-26T10:16:19.860Z,6.90
2018-05-26T10:18:47.765Z,7.57
2018-05-26T10:21:15.501Z,7.30
2018-05-26T10:23:43.386Z,9.70
2018-05-26T10:26:11.263Z,7.37
2018-05-26T10:28:39.143Z,8.02
2018-05-26T10:31:06.859Z,8.38
2018-05-26T10:33:35.507Z,10.00
2018-05-26T10:36:04.091Z,7.60
2018-05-26T10:38:31.914Z,7.55
2018-05-26T10:40:59.759Z,5.68
2018-05-26T10:43:28.356Z,6.03
2018-05-26T10:46:07.856Z,8.18
2018-05-26T10:48:35.724Z,7.97
2018-05-26T10:51:03.492Z,6.90
2018-05-26T10:53:31.985Z,8.65
2018-05-26T10:55:59.809Z,16.40
2018-05-26T10:58:27.692Z,11.80
2018-05-26T11:00:55.505Z,6.55
2018-05-26T11:03:23.188Z,13.48
2018-05-26T11:05:50.886Z,7.18
2018-05-26T11:08:18.601Z,7.97
2018-05-26T11:10:46.334Z,6.53
2018-05-26T11:13:13.994Z,9.10
2018-05-26T11:15:42.455Z,6.53
2018-05-26T11:18:11.168Z,6.93
2018-05-26T11:20:38.957Z,7.65
2018-05-26T11:23:06.868Z,9.10
2018-05-26T11:25:34.767Z,10.48
2018-05-26T11:28:03.470Z,5.85
2018-05-26T11:30:41.996Z,6.35
2018-05-26T11:33:12.069Z,7.90
2018-05-26T11:35:40.103Z,14.82
2018-05-26T11:39:18.777Z,14.55
2018-05-26T11:44:14.541Z,11.75
2018-05-26T11:46:42.361Z,8.05
2018-05-26T11:49:10.123Z,7.93
2018-05-26T11:51:37.903Z,8.55
2018-05-26T12:30:33.326Z,7.00
2018-05-26T12:36:11.948Z,6.70
2018-05-26T12:38:41.408Z,7.90
2018-05-26T12:41:11.367Z,6.96
2018-05-26T12:43:39.317Z,6.90
2018-05-26T12:46:08.166Z,9.27
2018-05-26T12:48:36.052Z,8.48
2018-05-26T12:51:04.071Z,6.10
2018-05-26T12:53:32.122Z,6.30
2018-05-26T12:56:03.345Z,7.90
2018-05-26T12:58:31.654Z,6.43
2018-05-26T13:01:00.904Z,6.25
2018-05-26T13:03:28.727Z,5.78
2018-05-26T13:05:56.639Z,5.43
2018-05-26T13:08:25.245Z,6.05
2018-05-26T13:10:54.167Z,6.70
2018-05-26T13:13:22.301Z,6.12
2018-05-26T13:15:50.126Z,5.95
2018-05-26T13:18:20.288Z,6.62
2018-05-26T13:20:54.215Z,6.35
2018-05-26T13:23:27.571Z,7.03
2018-05-26T13:26:05.107Z,5.18
2018-05-26T13:31:10.496Z,5.90
2018-05-26T13:33:50.730Z,9.52
2018-05-26T14:33:10.648Z,5.47
2018-05-26T14:41:39.842Z,5.75
2018-05-26T15:14:07.413Z,8.02
2018-05-26T17:03:53.021Z,6.95
2018-05-26T17:06:32.460Z,4.68
2018-05-26T17:09:32.307Z,4.43
2018-05-26T17:46:59.921Z,5.18
2018-05-26T18:17:45.256Z,4.93
2018-05-26T18:20:35.525Z,4.80
2018-05-26T18:29:14.934Z,7.90
2018-05-26T18:31:49.336Z,9.00
2018-05-26T18:34:42.196Z,6.65
2018-05-26T18:47:48.354Z,8.80
2018-05-26T19:17:15.330Z,7.68
2018-05-26T19:20:16.166Z,8.50
2018-05-26T19:23:33.251Z,10.50
2018-05-26T19:28:42.732Z,11.70
2018-05-26T19:31:13.575Z,13.85
2018-05-26T19:33:43.312Z,8.82
2018-05-26T19:36:12.104Z,10.15
2018-05-26T19:38:41.227Z,7.25
2018-05-26T19:41:09.344Z,10.18
2018-05-26T19:43:37.275Z,9.63
2018-05-26T19:46:10.346Z,11.60
2018-05-26T19:48:38.607Z,12.00
2018-05-26T19:51:10.436Z,9.27
2018-05-26T19:53:39.396Z,10.25
2018-05-26T19:56:20.486Z,10.45
2018-05-26T19:58:50.324Z,10.93
2018-05-26T20:01:19.009Z,9.55
2018-05-26T20:03:48.460Z,9.43
2018-05-26T20:06:16.756Z,8.45
2018-05-26T20:08:45.211Z,9.88
2018-05-26T20:11:24.356Z,10.00
2018-05-26T20:19:24.117Z,13.10
2018-05-26T20:25:50.754Z,18.55
2018-05-26T21:24:53.192Z,12.63
2018-05-26T21:27:20.986Z,11.82
2018-05-26T21:30:01.628Z,12.70
2018-05-26T21:32:33.694Z,15.00
2018-05-26T21:35:21.998Z,12.00
2018-05-26T23:01:28.046Z,10.17
2018-05-26T23:06:35.511Z,15.57
2018-05-26T23:09:03.467Z,13.40
2018-05-26T23:11:31.431Z,10.83
2018-05-26T23:13:59.270Z,13.10
2018-05-26T23:16:27.100Z,12.17
2018-05-26T23:18:54.968Z,15.00
2018-05-26T23:21:22.763Z,15.67
2018-05-26T23:23:51.484Z,13.60
2018-05-26T23:26:20.885Z,12.90
2018-05-26T23:28:49.178Z,13.90
2018-05-26T23:31:17.099Z,14.03
2018-05-26T23:33:44.861Z,15.30
2018-05-26T23:36:12.653Z,12.77
2018-05-26T23:38:40.647Z,16.97
2018-05-26T23:41:08.434Z,12.90
2018-05-26T23:43:36.508Z,14.13
2018-05-26T23:46:04.284Z,13.53
2018-05-26T23:48:31.961Z,12.03
2018-05-26T23:50:59.696Z,12.07
2018-05-26T23:53:27.453Z,12.83
2018-05-26T23:55:55.167Z,12.23
2018-05-26T23:58:22.838Z,12.43
